createdAt,value
2017-10-05T00:01:01.285Z,72.48
2017-10-05T00:01:40.300Z,72.38
2017-10-05T00:02:40.335Z,72.38
2017-10-05T00:03:40.372Z,73.24
2017-10-05T00:04:40.416Z,73.05
2017-10-05T00:05:40.443Z,73.52
2017-10-05T00:07:01.504Z,73.52
2017-10-05T00:07:40.520Z,74.01
2017-10-05T00:08:40.550Z,73.81
2017-10-05T00:09:40.585Z,73.72
2017-10-05T00:10:40.626Z,74.10
2017-10-05T00:11:40.653Z,74.01
2017-10-05T00:13:01.720Z,73.43
2017-10-05T00:13:40.728Z,73.43
2017-10-05T00:14:40.766Z,73.43
2017-10-05T00:15:40.801Z,73.24
2017-10-05T00:16:40.840Z,73.62
2017-10-05T00:17:40.871Z,74.10
2017-10-05T00:19:01.925Z,73.62
2017-10-05T00:19:40.941Z,73.43
2017-10-05T00:20:40.977Z,73.62
2017-10-05T00:21:41.018Z,73.24
2017-10-05T00:22:41.051Z,73.62
2017-10-05T00:23:41.089Z,73.14
2017-10-05T00:25:02.142Z,73.33
2017-10-05T00:25:41.161Z,73.62
2017-10-05T00:26:41.193Z,73.14
2017-10-05T00:27:41.225Z,72.86
2017-10-05T00:28:41.264Z,73.62
2017-10-05T00:29:41.306Z,73.52
2017-10-05T00:31:02.351Z,73.33
2017-10-05T00:31:41.367Z,73.43
2017-10-05T00:32:41.405Z,73.62
2017-10-05T00:33:41.441Z,73.52
2017-10-05T00:34:41.481Z,72.76
2017-10-05T00:35:41.511Z,73.24
2017-10-05T00:37:02.592Z,72.76
2017-10-05T00:37:41.589Z,72.57
2017-10-05T00:38:41.619Z,72.38
2017-10-05T00:39:41.659Z,72.57
2017-10-05T00:40:41.693Z,72.57
2017-10-05T00:41:41.723Z,72.57
2017-10-05T00:43:02.780Z,73.24
2017-10-05T00:43:41.794Z,73.24
2017-10-05T00:44:41.837Z,73.24
2017-10-05T00:45:41.870Z,72.96
2017-10-05T00:46:41.905Z,73.43
2017-10-05T00:47:41.944Z,73.62
2017-10-05T00:49:02.997Z,73.81
2017-10-05T00:49:42.011Z,73.43
2017-10-05T00:50:42.044Z,74.01
2017-10-05T00:51:42.078Z,73.62
2017-10-05T00:52:42.123Z,73.72
2017-10-05T00:53:42.152Z,74.48
2017-10-05T00:55:03.206Z,74.48
2017-10-05T00:55:42.221Z,74.67
2017-10-05T00:56:42.266Z,74.48
2017-10-05T00:57:42.297Z,74.38
2017-10-05T00:58:42.338Z,74.38
2017-10-05T00:59:42.367Z,74.48
2017-10-05T01:01:03.426Z,74.96
2017-10-05T01:01:42.436Z,74.67
2017-10-05T01:02:42.474Z,75.15
2017-10-05T01:03:42.510Z,74.96
2017-10-05T01:04:42.540Z,75.24
2017-10-05T01:05:42.584Z,75.24
2017-10-05T01:07:03.639Z,74.57
2017-10-05T01:07:42.650Z,75.62
2017-10-05T01:08:42.685Z,75.34
2017-10-05T01:09:42.723Z,75.24
2017-10-05T01:10:42.753Z,75.24
2017-10-05T01:11:42.787Z,75.34
2017-10-05T01:13:03.846Z,75.15
2017-10-05T01:13:42.864Z,75.53
2017-10-05T01:14:42.900Z,75.05
2017-10-05T01:15:42.933Z,75.05
2017-10-05T01:16:42.969Z,75.53
2017-10-05T01:17:43.004Z,75.34
2017-10-05T01:19:04.068Z,75.15
2017-10-05T01:19:43.075Z,75.05
2017-10-05T01:20:43.114Z,75.53
2017-10-05T01:21:43.156Z,75.72
2017-10-05T01:22:43.185Z,75.81
2017-10-05T01:23:43.222Z,75.53
2017-10-05T01:25:04.272Z,75.62
2017-10-05T01:25:43.292Z,75.62
2017-10-05T01:26:43.330Z,76.29
2017-10-05T01:27:43.358Z,76.10
2017-10-05T01:28:43.393Z,76.20
2017-10-05T01:29:43.433Z,76.20
2017-10-05T01:31:04.490Z,76.01
2017-10-05T01:31:43.505Z,76.20
2017-10-05T01:32:43.536Z,76.01
2017-10-05T01:33:43.568Z,76.20
2017-10-05T01:34:43.606Z,76.57
2017-10-05T01:35:43.643Z,76.67
2017-10-05T01:37:04.704Z,76.67
2017-10-05T01:37:43.720Z,76.57
2017-10-05T01:38:43.747Z,76.48
2017-10-05T01:39:43.783Z,76.67
2017-10-05T01:40:43.820Z,76.57
2017-10-05T01:41:43.858Z,76.67
2017-10-05T01:43:04.911Z,76.77
2017-10-05T01:43:43.935Z,76.39
2017-10-05T01:44:43.966Z,76.96
2017-10-05T01:45:43.996Z,77.34
2017-10-05T01:46:44.038Z,77.62
2017-10-05T01:47:44.067Z,77.44
2017-10-05T01:49:05.124Z,77.91
2017-10-05T01:49:44.138Z,77.62
2017-10-05T01:50:44.176Z,77.91
2017-10-05T01:51:44.205Z,78.10
2017-10-05T01:52:44.247Z,77.82
2017-10-05T01:53:44.283Z,78.01
2017-10-05T01:55:05.345Z,77.82
2017-10-05T01:55:44.359Z,77.82
2017-10-05T01:56:44.392Z,78.20
2017-10-05T01:57:44.422Z,78.20
2017-10-05T01:58:44.457Z,78.10
2017-10-05T01:59:44.494Z,78.58
2017-10-05T02:01:05.551Z,78.30
2017-10-05T02:01:44.566Z,78.96
2017-10-05T02:02:44.607Z,78.39
2017-10-05T02:03:44.634Z,78.86
2017-10-05T02:04:44.673Z,78.67
2017-10-05T02:05:44.708Z,78.96
2017-10-05T02:07:05.766Z,78.67
2017-10-05T02:07:44.782Z,79.25
2017-10-05T02:08:44.812Z,79.59
2017-10-05T02:09:44.845Z,79.53
2017-10-05T02:10:44.887Z,80.07
2017-10-05T02:11:44.922Z,80.26
2017-10-05T02:13:05.975Z,79.88
2017-10-05T02:13:44.996Z,79.49
2017-10-05T02:14:45.030Z,80.44
2017-10-05T02:15:45.064Z,80.73
2017-10-05T02:16:45.093Z,80.54
2017-10-05T02:17:45.127Z,81.12
2017-10-05T02:19:06.187Z,81.21
2017-10-05T02:19:45.200Z,80.16
2017-10-05T02:20:45.236Z,80.83
2017-10-05T02:21:45.273Z,81.02
2017-10-05T02:22:45.308Z,80.83
2017-10-05T02:23:45.349Z,80.83
2017-10-05T02:25:06.401Z,81.21
2017-10-05T02:25:45.412Z,81.88
2017-10-05T02:26:45.448Z,81.68
2017-10-05T02:27:45.484Z,81.49
2017-10-05T02:28:45.531Z,81.40
2017-10-05T02:29:45.558Z,81.49
2017-10-05T02:31:06.611Z,81.49
2017-10-05T02:31:45.636Z,81.59
2017-10-05T02:32:45.658Z,81.78
2017-10-05T02:33:45.694Z,81.97
2017-10-05T02:34:45.729Z,82.07
2017-10-05T02:35:45.771Z,82.17
2017-10-05T02:37:06.825Z,81.68
2017-10-05T02:37:45.841Z,81.59
2017-10-05T02:38:45.873Z,81.78
2017-10-05T02:39:45.910Z,81.78
2017-10-05T02:40:45.947Z,81.78
2017-10-05T02:41:45.989Z,80.92
2017-10-05T02:43:07.039Z,82.07
2017-10-05T02:43:46.050Z,82.17
2017-10-05T02:44:46.091Z,81.68
2017-10-05T02:45:46.119Z,81.49
2017-10-05T02:46:46.157Z,81.59
2017-10-05T02:47:46.191Z,81.78
2017-10-05T02:49:07.247Z,81.59
2017-10-05T02:49:46.262Z,81.59
2017-10-05T02:50:46.297Z,81.12
2017-10-05T02:51:46.329Z,81.88
2017-10-05T02:52:46.381Z,81.40
2017-10-05T02:53:46.403Z,81.30
2017-10-05T02:55:07.460Z,81.30
2017-10-05T02:55:46.475Z,81.49
2017-10-05T02:56:46.508Z,81.59
2017-10-05T02:57:46.545Z,81.30
2017-10-05T02:58:46.578Z,81.12
2017-10-05T02:59:46.613Z,81.21
2017-10-05T03:01:07.670Z,81.68
2017-10-05T03:01:46.683Z,81.78
2017-10-05T03:02:46.715Z,82.26
2017-10-05T03:03:46.756Z,82.26
2017-10-05T03:04:46.790Z,81.78
2017-10-05T03:05:46.824Z,82.17
2017-10-05T03:07:07.878Z,82.83
2017-10-05T03:07:46.899Z,82.07
2017-10-05T03:08:46.931Z,82.64
2017-10-05T03:09:46.961Z,82.64
2017-10-05T03:10:47.004Z,82.73
2017-10-05T03:11:47.034Z,82.73
2017-10-05T03:13:08.095Z,83.40
2017-10-05T03:13:47.108Z,83.59
2017-10-05T03:14:47.140Z,83.59
2017-10-05T03:15:47.179Z,83.88
2017-10-05T03:16:47.212Z,84.16
2017-10-05T03:17:47.243Z,83.31
2017-10-05T03:19:08.307Z,83.88
2017-10-05T03:19:47.321Z,83.97
2017-10-05T03:20:47.354Z,84.26
2017-10-05T03:21:47.393Z,84.74
2017-10-05T03:22:47.425Z,85.02
2017-10-05T03:23:47.455Z,84.45
2017-10-05T03:25:08.518Z,84.07
2017-10-05T03:25:47.527Z,84.92
2017-10-05T03:26:47.572Z,85.02
2017-10-05T03:27:47.603Z,85.12
2017-10-05T03:28:47.637Z,84.74
2017-10-05T03:29:47.666Z,85.69
2017-10-05T03:31:08.727Z,85.21
2017-10-05T03:31:47.742Z,85.02
2017-10-05T03:32:47.776Z,85.41
2017-10-05T03:33:47.813Z,85.21
2017-10-05T03:34:47.848Z,85.88
2017-10-05T03:35:47.879Z,85.69
2017-10-05T03:37:08.939Z,85.69
2017-10-05T03:37:47.954Z,86.26
2017-10-05T03:38:47.991Z,86.07
2017-10-05T03:39:48.021Z,86.60
2017-10-05T03:40:48.055Z,87.36
2017-10-05T03:41:48.094Z,87.36
2017-10-05T03:43:09.148Z,87.84
2017-10-05T03:43:48.166Z,88.12
2017-10-05T03:44:48.205Z,88.22
2017-10-05T03:45:48.232Z,88.89
2017-10-05T03:46:48.265Z,89.07
2017-10-05T03:47:48.299Z,88.89
2017-10-05T03:49:09.354Z,89.17
2017-10-05T03:49:48.369Z,88.70
2017-10-05T03:50:48.412Z,88.79
2017-10-05T03:51:48.439Z,89.07
2017-10-05T03:52:48.477Z,89.65
2017-10-05T03:53:48.531Z,89.65
2017-10-05T03:55:09.582Z,90.41
2017-10-05T03:55:48.585Z,91.36
2017-10-05T03:56:48.615Z,90.50
2017-10-05T03:57:48.653Z,90.98
2017-10-05T03:58:48.687Z,91.46
2017-10-05T03:59:48.721Z,91.17
2017-10-05T04:01:09.780Z,90.60
2017-10-05T04:01:48.796Z,90.98
2017-10-05T04:02:48.826Z,90.89
2017-10-05T04:03:48.862Z,90.70
2017-10-05T04:04:48.895Z,91.08
2017-10-05T04:05:48.928Z,90.89
2017-10-05T04:07:09.982Z,90.79
2017-10-05T04:07:48.998Z,90.79
2017-10-05T04:08:49.033Z,91.17
2017-10-05T04:09:49.075Z,90.60
2017-10-05T04:10:49.104Z,91.65
2017-10-05T04:11:49.147Z,90.98
2017-10-05T04:13:10.199Z,90.60
2017-10-05T04:13:49.208Z,90.89
2017-10-05T04:14:49.243Z,91.65
2017-10-05T04:15:49.288Z,90.70
2017-10-05T04:16:49.310Z,90.79
2017-10-05T04:17:49.343Z,91.65
2017-10-05T04:19:10.404Z,92.32
2017-10-05T04:19:49.419Z,92.69
2017-10-05T04:20:49.453Z,92.89
2017-10-05T04:21:49.490Z,92.50
2017-10-05T04:22:49.523Z,93.65
2017-10-05T04:23:49.557Z,93.46
2017-10-05T04:25:10.613Z,94.03
2017-10-05T04:25:49.628Z,93.17
2017-10-05T04:26:49.665Z,93.65
2017-10-05T04:27:49.700Z,93.27
2017-10-05T04:28:49.732Z,93.70
2017-10-05T04:29:49.767Z,93.93
2017-10-05T04:31:10.830Z,94.22
2017-10-05T04:31:49.850Z,93.84
2017-10-05T04:32:49.875Z,93.79
2017-10-05T04:33:49.915Z,94.79
2017-10-05T04:34:49.944Z,94.70
2017-10-05T04:35:49.981Z,94.32
2017-10-05T04:37:11.036Z,94.98
2017-10-05T04:37:50.061Z,94.70
2017-10-05T04:38:50.191Z,94.70
2017-10-05T04:39:50.118Z,94.22
2017-10-05T04:40:50.149Z,94.98
2017-10-05T04:41:50.206Z,94.79
2017-10-05T04:43:11.242Z,94.60
2017-10-05T04:43:50.263Z,94.98
2017-10-05T04:44:50.293Z,94.32
2017-10-05T04:45:50.323Z,93.74
2017-10-05T04:46:50.356Z,93.84
2017-10-05T04:47:50.398Z,93.79
2017-10-05T04:49:11.448Z,93.74
2017-10-05T04:49:50.473Z,94.22
2017-10-05T04:50:50.499Z,94.60
2017-10-05T04:51:50.545Z,94.89
2017-10-05T04:52:50.576Z,94.41
2017-10-05T04:53:50.612Z,94.32
2017-10-05T04:55:11.657Z,94.98
2017-10-05T04:55:50.676Z,94.22
2017-10-05T04:56:50.711Z,94.60
2017-10-05T04:57:50.745Z,94.41
2017-10-05T04:58:50.777Z,94.70
2017-10-05T04:59:50.814Z,94.65
2017-10-05T05:01:11.865Z,95.08
2017-10-05T05:01:50.880Z,94.22
2017-10-05T05:02:50.923Z,94.51
2017-10-05T05:03:50.954Z,94.60
2017-10-05T05:04:50.990Z,94.70
2017-10-05T05:05:51.020Z,94.41
2017-10-05T05:07:12.082Z,94.51
2017-10-05T05:07:51.097Z,93.60
2017-10-05T05:08:51.127Z,94.65
2017-10-05T05:09:51.167Z,93.84
2017-10-05T05:10:51.197Z,94.13
2017-10-05T05:11:51.239Z,94.70
2017-10-05T05:13:12.284Z,94.65
2017-10-05T05:13:51.331Z,94.79
2017-10-05T05:14:51.421Z,94.60
2017-10-05T05:15:51.398Z,94.60
2017-10-05T05:16:51.404Z,94.60
2017-10-05T05:17:51.433Z,94.70
2017-10-05T05:19:12.490Z,94.89
2017-10-05T05:19:51.512Z,95.17
2017-10-05T05:20:51.549Z,94.60
2017-10-05T05:21:51.573Z,94.70
2017-10-05T05:22:51.614Z,95.27
2017-10-05T05:23:51.651Z,95.36
2017-10-05T05:25:12.702Z,95.46
2017-10-05T05:25:51.750Z,95.46
2017-10-05T05:26:51.749Z,94.60
2017-10-05T05:27:51.788Z,94.98
2017-10-05T05:28:51.818Z,94.79
2017-10-05T05:29:51.873Z,94.65
2017-10-05T05:31:12.908Z,94.93
2017-10-05T05:31:51.940Z,95.65
2017-10-05T05:32:51.955Z,95.27
2017-10-05T05:33:51.994Z,95.17
2017-10-05T05:34:52.030Z,95.56
2017-10-05T05:35:52.068Z,95.46
2017-10-05T05:37:13.119Z,95.22
2017-10-05T05:37:52.137Z,95.84
2017-10-05T05:38:52.164Z,95.32
2017-10-05T05:39:52.289Z,95.27
2017-10-05T05:40:52.238Z,95.36
2017-10-05T05:41:52.409Z,96.22
2017-10-05T05:43:13.323Z,95.94
2017-10-05T05:43:52.345Z,95.75
2017-10-05T05:44:52.378Z,95.84
2017-10-05T05:45:52.404Z,95.65
2017-10-05T05:46:52.442Z,95.17
2017-10-05T05:47:52.479Z,95.46
2017-10-05T05:49:13.535Z,96.22
2017-10-05T05:49:52.544Z,96.22
2017-10-05T05:50:52.577Z,95.65
2017-10-05T05:51:52.622Z,95.94
2017-10-05T05:52:52.653Z,99.13
2017-10-05T05:53:52.684Z,98.99
2017-10-05T05:55:13.740Z,95.89
2017-10-05T05:55:52.754Z,92.21
2017-10-05T05:56:52.794Z,89.78
2017-10-05T05:57:52.828Z,88.39
2017-10-05T05:58:52.862Z,85.47
2017-10-05T05:59:52.902Z,82.64
2017-10-05T06:01:13.955Z,80.82
2017-10-05T06:01:52.969Z,79.14
2017-10-05T06:02:53.012Z,78.22
2017-10-05T06:03:53.050Z,76.79
2017-10-05T06:04:53.075Z,76.50
2017-10-05T06:05:53.111Z,76.06
2017-10-05T06:07:14.173Z,74.91
2017-10-05T06:07:53.188Z,74.82
2017-10-05T06:08:53.230Z,74.37
2017-10-05T06:09:53.266Z,73.61
2017-10-05T06:10:53.301Z,72.84
2017-10-05T06:11:53.340Z,72.36
2017-10-05T06:13:14.398Z,72.01
2017-10-05T06:13:53.422Z,72.39
2017-10-05T06:14:53.449Z,71.82
2017-10-05T06:15:53.486Z,71.44
2017-10-05T06:16:53.524Z,71.15
2017-10-05T06:17:53.564Z,70.38
2017-10-05T06:19:14.631Z,70.57
2017-10-05T06:19:53.665Z,70.32
2017-10-05T06:20:53.676Z,70.03
2017-10-05T06:21:53.721Z,69.93
2017-10-05T06:22:53.813Z,69.74
2017-10-05T06:23:53.800Z,69.93
2017-10-05T06:25:14.862Z,69.07
2017-10-05T06:25:53.875Z,68.88
2017-10-05T06:26:53.910Z,69.36
2017-10-05T06:27:53.957Z,68.30
2017-10-05T06:28:54.019Z,68.69
2017-10-05T06:29:54.031Z,67.92
2017-10-05T06:31:15.115Z,68.69
2017-10-05T06:31:54.106Z,68.30
2017-10-05T06:32:54.151Z,68.30
2017-10-05T06:33:54.273Z,68.12
2017-10-05T06:34:54.335Z,67.92
2017-10-05T06:35:54.270Z,68.40
2017-10-05T06:37:15.333Z,67.83
2017-10-05T06:37:54.344Z,67.96
2017-10-05T06:38:54.455Z,67.76
2017-10-05T06:39:54.426Z,67.86
2017-10-05T06:40:54.470Z,67.96
2017-10-05T06:41:56.087Z,67.86
2017-10-05T06:43:15.571Z,68.15
2017-10-05T06:43:56.772Z,67.38
2017-10-05T06:44:54.624Z,67.29
2017-10-05T06:45:54.684Z,67.29
2017-10-05T06:46:54.706Z,66.64
2017-10-05T06:47:54.745Z,66.74
2017-10-05T06:49:15.828Z,66.64
2017-10-05T06:49:54.832Z,66.16
2017-10-05T06:50:54.901Z,65.59
2017-10-05T06:51:54.908Z,65.59
2017-10-05T06:52:54.951Z,65.88
2017-10-05T06:53:55.041Z,65.43
2017-10-05T06:55:16.046Z,65.62
2017-10-05T06:55:56.604Z,65.53
2017-10-05T06:56:55.286Z,65.53
2017-10-05T06:57:55.496Z,65.62
2017-10-05T06:58:55.942Z,65.33
2017-10-05T06:59:55.632Z,65.56
2017-10-05T07:01:16.592Z,65.27
2017-10-05T07:01:55.689Z,65.27
2017-10-05T07:02:56.870Z,64.89
2017-10-05T07:03:55.716Z,64.98
2017-10-05T07:04:56.761Z,64.79
2017-10-05T07:05:55.484Z,64.79
2017-10-05T07:07:16.545Z,64.05
2017-10-05T07:07:55.566Z,64.31
2017-10-05T07:08:55.600Z,64.34
2017-10-05T07:09:55.640Z,64.02
2017-10-05T07:10:55.683Z,63.86
2017-10-05T07:11:55.726Z,63.67
2017-10-05T07:13:16.804Z,63.67
2017-10-05T07:13:55.811Z,63.67
2017-10-05T07:14:55.851Z,63.28
2017-10-05T07:15:55.892Z,63.28
2017-10-05T07:16:55.931Z,63.18
2017-10-05T07:17:56.001Z,63.57
2017-10-05T07:19:17.044Z,63.48
2017-10-05T07:19:56.060Z,63.38
2017-10-05T07:20:56.103Z,62.51
2017-10-05T07:21:56.138Z,62.64
2017-10-05T07:22:56.184Z,62.83
2017-10-05T07:23:56.227Z,62.74
2017-10-05T07:25:17.292Z,62.83
2017-10-05T07:25:56.310Z,62.74
2017-10-05T07:26:56.347Z,62.45
2017-10-05T07:27:56.406Z,62.64
2017-10-05T07:28:56.440Z,62.93
2017-10-05T07:29:56.499Z,62.83
2017-10-05T07:31:17.548Z,62.16
2017-10-05T07:31:56.560Z,62.16
2017-10-05T07:32:56.615Z,62.48
2017-10-05T07:33:56.659Z,62.38
2017-10-05T07:34:56.692Z,62.26
2017-10-05T07:35:56.731Z,62.38
2017-10-05T07:37:17.799Z,62.19
2017-10-05T07:37:56.816Z,61.90
2017-10-05T07:38:56.866Z,62.48
2017-10-05T07:39:56.905Z,62.00
2017-10-05T07:40:56.955Z,61.61
2017-10-05T07:41:56.986Z,61.61
2017-10-05T07:43:18.058Z,62.00
2017-10-05T07:43:57.074Z,61.80
2017-10-05T07:44:57.118Z,62.00
2017-10-05T07:45:57.174Z,62.00
2017-10-05T07:46:57.204Z,61.90
2017-10-05T07:47:57.248Z,61.93
2017-10-05T07:49:18.316Z,61.16
2017-10-05T07:49:57.439Z,61.07
2017-10-05T07:50:57.375Z,61.16
2017-10-05T07:51:57.414Z,61.25
2017-10-05T07:52:57.456Z,61.45
2017-10-05T07:53:57.504Z,60.87
2017-10-05T07:55:18.702Z,61.35
2017-10-05T07:55:57.587Z,61.45
2017-10-05T07:56:57.629Z,60.77
2017-10-05T07:57:57.899Z,61.16
2017-10-05T07:58:57.724Z,61.16
2017-10-05T07:59:57.787Z,60.68
2017-10-05T08:01:18.823Z,60.68
2017-10-05T08:01:57.864Z,60.58
2017-10-05T08:02:57.905Z,60.49
2017-10-05T08:03:57.929Z,60.49
2017-10-05T08:04:58.291Z,60.97
2017-10-05T08:05:58.022Z,60.87
2017-10-05T08:07:19.123Z,61.07
2017-10-05T08:07:58.104Z,61.07
2017-10-05T08:08:58.150Z,60.58
2017-10-05T08:09:58.220Z,60.20
2017-10-05T08:10:58.236Z,60.49
2017-10-05T08:11:58.285Z,60.30
2017-10-05T08:13:20.355Z,60.39
2017-10-05T08:13:59.058Z,60.42
2017-10-05T08:14:59.480Z,60.20
2017-10-05T08:15:58.450Z,60.68
2017-10-05T08:16:58.561Z,61.00
2017-10-05T08:17:58.584Z,60.71
2017-10-05T08:19:19.602Z,60.80
2017-10-05T08:19:58.625Z,60.90
2017-10-05T08:20:58.670Z,61.00
2017-10-05T08:21:58.711Z,61.00
2017-10-05T08:22:58.829Z,61.10
2017-10-05T08:23:58.801Z,61.19
2017-10-05T08:25:19.924Z,61.19
2017-10-05T08:25:58.891Z,61.00
2017-10-05T08:26:58.938Z,61.10
2017-10-05T08:27:58.977Z,60.80
2017-10-05T08:28:59.019Z,60.42
2017-10-05T08:29:59.063Z,60.32
2017-10-05T08:31:20.153Z,60.71
2017-10-05T08:31:59.887Z,60.61
2017-10-05T08:32:59.193Z,60.61
2017-10-05T08:33:59.243Z,59.75
2017-10-05T08:34:59.281Z,59.55
2017-10-05T08:35:59.373Z,60.13
2017-10-05T08:37:20.389Z,60.03
2017-10-05T08:37:59.411Z,60.03
2017-10-05T08:38:59.454Z,60.13
2017-10-05T08:39:59.507Z,59.84
2017-10-05T08:40:59.542Z,58.49
2017-10-05T08:41:59.671Z,55.22
2017-10-05T08:43:20.659Z,54.22
2017-10-05T08:43:59.673Z,54.42
2017-10-05T08:44:59.718Z,54.78
2017-10-05T08:45:59.759Z,54.94
2017-10-05T08:46:59.892Z,55.90
2017-10-05T08:47:59.854Z,56.07
2017-10-05T08:49:20.923Z,57.20
2017-10-05T08:49:59.952Z,57.97
2017-10-05T08:50:59.981Z,58.73
2017-10-05T08:52:00.058Z,59.02
2017-10-05T08:53:00.070Z,58.92
2017-10-05T08:54:00.542Z,59.41
2017-10-05T08:55:21.177Z,59.89
2017-10-05T08:56:00.287Z,59.99
2017-10-05T08:57:00.285Z,60.01
2017-10-05T08:58:00.283Z,59.15
2017-10-05T08:59:00.343Z,59.92
2017-10-05T09:00:00.377Z,59.92
2017-10-05T09:01:21.438Z,59.15
2017-10-05T09:02:00.464Z,59.08
2017-10-05T09:03:00.522Z,58.60
2017-10-05T09:04:00.720Z,58.79
2017-10-05T09:05:00.603Z,58.98
2017-10-05T09:06:00.636Z,58.70
2017-10-05T09:07:21.771Z,58.82
2017-10-05T09:08:00.756Z,58.92
2017-10-05T09:09:00.761Z,58.44
2017-10-05T09:10:00.805Z,58.05
2017-10-05T09:11:00.868Z,58.05
2017-10-05T09:12:00.899Z,57.95
2017-10-05T09:13:22.090Z,58.15
2017-10-05T09:14:00.976Z,58.17
2017-10-05T09:15:01.028Z,57.98
2017-10-05T09:16:01.066Z,57.98
2017-10-05T09:17:01.112Z,57.98
2017-10-05T09:18:01.149Z,58.08
2017-10-05T09:19:22.220Z,58.27
2017-10-05T09:20:01.239Z,58.37
2017-10-05T09:21:01.276Z,58.17
2017-10-05T09:22:01.337Z,58.27
2017-10-05T09:23:01.368Z,58.27
2017-10-05T09:24:01.411Z,57.89
2017-10-05T09:25:22.477Z,57.98
2017-10-05T09:26:01.509Z,58.49
2017-10-05T09:27:01.541Z,58.47
2017-10-05T09:28:01.589Z,58.30
2017-10-05T09:29:01.634Z,58.20
2017-10-05T09:30:01.675Z,57.98
2017-10-05T09:31:22.741Z,58.20
2017-10-05T09:32:01.756Z,58.37
2017-10-05T09:33:01.807Z,58.30
2017-10-05T09:34:01.844Z,58.97
2017-10-05T09:35:01.897Z,58.97
2017-10-05T09:36:01.938Z,58.78
2017-10-05T09:37:23.008Z,58.78
2017-10-05T09:38:02.025Z,58.88
2017-10-05T09:39:02.064Z,58.78
2017-10-05T09:40:02.108Z,58.49
2017-10-05T09:41:02.146Z,58.88
2017-10-05T09:42:02.203Z,59.27
2017-10-05T09:43:23.263Z,59.17
2017-10-05T09:44:02.286Z,58.97
2017-10-05T09:45:02.325Z,59.27
2017-10-05T09:46:02.370Z,58.88
2017-10-05T09:47:02.432Z,58.88
2017-10-05T09:48:02.462Z,58.78
2017-10-05T09:49:23.524Z,59.27
2017-10-05T09:50:02.541Z,58.69
2017-10-05T09:51:02.592Z,58.97
2017-10-05T09:52:02.627Z,59.27
2017-10-05T09:53:02.680Z,58.97
2017-10-05T09:54:02.724Z,58.88
2017-10-05T09:55:23.790Z,58.69
2017-10-05T09:56:02.806Z,58.69
2017-10-05T09:57:02.849Z,58.78
2017-10-05T09:58:02.894Z,59.07
2017-10-05T09:59:02.933Z,59.07
2017-10-05T10:00:02.981Z,59.07
2017-10-05T10:01:24.053Z,58.88
2017-10-05T10:02:03.069Z,58.69
2017-10-05T10:03:03.113Z,58.78
2017-10-05T10:04:03.165Z,58.69
2017-10-05T10:05:03.199Z,58.78
2017-10-05T10:06:03.244Z,58.59
2017-10-05T10:07:24.308Z,59.17
2017-10-05T10:08:03.330Z,58.88
2017-10-05T10:09:03.370Z,58.97
2017-10-05T10:10:03.435Z,59.27
2017-10-05T10:11:03.462Z,59.17
2017-10-05T10:12:03.510Z,59.27
2017-10-05T10:13:24.576Z,59.20
2017-10-05T10:14:03.591Z,59.30
2017-10-05T10:15:03.648Z,59.48
2017-10-05T10:16:03.679Z,59.39
2017-10-05T10:17:03.727Z,59.48
2017-10-05T10:18:03.769Z,59.58
2017-10-05T10:19:24.843Z,59.39
2017-10-05T10:20:03.855Z,59.45
2017-10-05T10:21:03.899Z,56.98
2017-10-05T10:22:03.944Z,55.92
2017-10-05T10:23:03.983Z,55.51
2017-10-05T10:24:04.036Z,55.12
2017-10-05T10:25:25.097Z,55.12
2017-10-05T10:26:04.133Z,54.25
2017-10-05T10:27:04.171Z,54.64
2017-10-05T10:28:04.250Z,54.93
2017-10-05T10:29:04.250Z,55.29
2017-10-05T10:30:04.291Z,54.93
2017-10-05T10:31:25.369Z,54.42
2017-10-05T10:32:04.383Z,55.38
2017-10-05T10:33:04.440Z,55.67
2017-10-05T10:34:04.467Z,55.77
2017-10-05T10:35:04.513Z,55.87
2017-10-05T10:36:04.557Z,55.96
2017-10-05T10:37:25.631Z,56.25
2017-10-05T10:38:04.644Z,56.25
2017-10-05T10:39:04.694Z,57.12
2017-10-05T10:40:04.740Z,56.82
2017-10-05T10:41:04.787Z,57.02
2017-10-05T10:42:04.826Z,56.85
2017-10-05T10:43:25.898Z,56.76
2017-10-05T10:44:04.947Z,56.76
2017-10-05T10:45:05.001Z,56.27
2017-10-05T10:46:04.997Z,57.14
2017-10-05T10:47:05.039Z,56.27
2017-10-05T10:48:05.088Z,56.09
2017-10-05T10:49:26.159Z,55.99
2017-10-05T10:50:05.166Z,56.37
2017-10-05T10:51:05.213Z,55.89
2017-10-05T10:52:05.256Z,56.18
2017-10-05T10:53:05.301Z,56.18
2017-10-05T10:54:05.343Z,55.70
2017-10-05T10:55:26.411Z,55.99
2017-10-05T10:56:05.436Z,55.89
2017-10-05T10:57:05.476Z,56.37
2017-10-05T10:58:05.519Z,56.30
2017-10-05T10:59:05.566Z,55.92
2017-10-05T11:00:05.609Z,56.21
2017-10-05T11:01:26.681Z,55.92
2017-10-05T11:02:05.705Z,55.82
2017-10-05T11:03:05.739Z,56.01
2017-10-05T11:04:05.795Z,56.01
2017-10-05T11:05:05.832Z,56.11
2017-10-05T11:06:05.872Z,56.01
2017-10-05T11:07:27.090Z,56.01
2017-10-05T11:08:05.959Z,55.44
2017-10-05T11:09:06.015Z,54.66
2017-10-05T11:10:06.048Z,54.38
2017-10-05T11:11:06.092Z,53.89
2017-10-05T11:12:06.139Z,53.96
2017-10-05T11:13:27.204Z,54.16
2017-10-05T11:14:06.353Z,54.16
2017-10-05T11:15:06.266Z,54.64
2017-10-05T11:16:06.316Z,55.41
2017-10-05T11:17:06.357Z,55.12
2017-10-05T11:18:06.408Z,55.22
2017-10-05T11:19:27.464Z,55.60
2017-10-05T11:20:06.493Z,55.60
2017-10-05T11:21:06.541Z,56.18
2017-10-05T11:22:06.575Z,56.37
2017-10-05T11:23:06.621Z,56.18
2017-10-05T11:24:06.664Z,56.09
2017-10-05T11:25:27.747Z,55.89
2017-10-05T11:26:06.747Z,56.18
2017-10-05T11:27:06.797Z,56.01
2017-10-05T11:28:06.844Z,56.30
2017-10-05T11:29:07.014Z,56.79
2017-10-05T11:30:07.088Z,56.69
2017-10-05T11:31:27.996Z,56.88
2017-10-05T11:32:07.017Z,56.88
2017-10-05T11:33:07.061Z,56.85
2017-10-05T11:34:07.105Z,56.88
2017-10-05T11:35:07.326Z,56.69
2017-10-05T11:36:07.189Z,56.79
2017-10-05T11:37:28.266Z,56.79
2017-10-05T11:38:07.279Z,57.07
2017-10-05T11:39:07.426Z,57.07
2017-10-05T11:40:07.397Z,57.27
2017-10-05T11:41:07.415Z,57.07
2017-10-05T11:42:07.481Z,57.27
2017-10-05T11:43:28.520Z,57.27
2017-10-05T11:44:07.549Z,57.46
2017-10-05T11:45:07.594Z,58.04
2017-10-05T11:46:07.632Z,58.14
2017-10-05T11:47:07.679Z,58.14
2017-10-05T11:48:07.721Z,58.14
2017-10-05T11:49:28.790Z,58.23
2017-10-05T11:50:07.809Z,58.52
2017-10-05T11:51:07.852Z,59.00
2017-10-05T11:52:07.894Z,58.91
2017-10-05T11:53:07.939Z,59.20
2017-10-05T11:54:07.983Z,58.72
2017-10-05T11:55:29.055Z,58.72
2017-10-05T11:56:08.078Z,58.91
2017-10-05T11:57:08.122Z,58.62
2017-10-05T11:58:08.170Z,59.30
2017-10-05T11:59:08.219Z,58.72
2017-10-05T12:00:08.249Z,58.81
2017-10-05T12:01:29.333Z,59.00
2017-10-05T12:02:08.339Z,59.10
2017-10-05T12:03:08.380Z,59.20
2017-10-05T12:04:08.428Z,59.10
2017-10-05T12:05:09.351Z,59.30
2017-10-05T12:06:08.515Z,59.10
2017-10-05T12:07:29.587Z,59.39
2017-10-05T12:08:08.601Z,59.20
2017-10-05T12:09:08.663Z,59.39
2017-10-05T12:10:08.692Z,59.87
2017-10-05T12:11:08.730Z,60.16
2017-10-05T12:12:08.780Z,59.39
2017-10-05T12:13:29.849Z,59.20
2017-10-05T12:14:08.871Z,59.48
2017-10-05T12:15:09.008Z,60.16
2017-10-05T12:16:08.951Z,59.78
2017-10-05T12:17:09.202Z,59.68
2017-10-05T12:18:09.043Z,59.58
2017-10-05T12:19:30.114Z,59.97
2017-10-05T12:20:09.130Z,59.87
2017-10-05T12:21:09.190Z,59.68
2017-10-05T12:22:09.261Z,59.58
2017-10-05T12:23:09.261Z,59.48
2017-10-05T12:24:09.306Z,59.71
2017-10-05T12:25:30.403Z,59.90
2017-10-05T12:26:09.407Z,59.58
2017-10-05T12:27:09.441Z,60.19
2017-10-05T12:28:09.483Z,59.90
2017-10-05T12:29:09.677Z,60.19
2017-10-05T12:30:09.574Z,59.97
2017-10-05T12:31:30.654Z,59.90
2017-10-05T12:32:09.695Z,60.77
2017-10-05T12:33:10.772Z,60.68
2017-10-05T12:34:09.753Z,60.68
2017-10-05T12:35:09.793Z,60.19
2017-10-05T12:36:09.839Z,60.77
2017-10-05T12:37:30.908Z,60.38
2017-10-05T12:38:09.930Z,60.68
2017-10-05T12:39:10.079Z,60.48
2017-10-05T12:40:10.029Z,60.48
2017-10-05T12:41:10.080Z,60.68
2017-10-05T12:42:10.151Z,60.48
2017-10-05T12:43:31.487Z,60.58
2017-10-05T12:44:10.193Z,60.38
2017-10-05T12:45:10.235Z,60.68
2017-10-05T12:46:10.295Z,60.48
2017-10-05T12:47:10.341Z,61.06
2017-10-05T12:48:10.431Z,60.96
2017-10-05T12:49:31.789Z,60.38
2017-10-05T12:50:10.462Z,60.68
2017-10-05T12:51:10.509Z,60.77
2017-10-05T12:52:10.549Z,60.86
2017-10-05T12:53:10.595Z,61.16